International Virtual Aviation Organisation

Russian Federation and Kazakhstan MCD

 
UACP 131200Z 06005MPS 7000 -SN OVC016 M04/M05 Q1021 R05/3/0237 NOSIG RMK QFE753/1005
QNH:(hPa/inHg/mmHg)1021 / 30.15 / 766
QFE:(hPa/inHg/mmHg)1004 / 29.65 / 753
Temperature-4
Dew Point-5
Visibility7000
WeatherLight Snow
Cloud CoverOVC (1600);
Transition Height2100 m./7400 ft.
Transition LevelFL80
SQUAWK